sensor_id;sensor_type;location;lat;lon;timestamp;P1;durP1;ratioP1;P2;durP2;ratioP2
35418;SDS011;21525;41.240;16.500;2023-07-20T00:00:51;23.95;;;11.13;;
35418;SDS011;21525;41.240;16.500;2023-07-20T00:03:19;24.10;;;11.82;;
35418;SDS011;21525;41.240;16.500;2023-07-20T00:05:53;29.10;;;12.20;;
35418;SDS011;21525;41.240;16.500;2023-07-20T00:08:19;27.83;;;12.35;;
35418;SDS011;21525;41.240;16.500;2023-07-20T00:10:44;23.08;;;10.98;;
35418;SDS011;21525;41.240;16.500;2023-07-20T00:13:10;22.85;;;11.15;;
35418;SDS011;21525;41.240;16.500;2023-07-20T00:15:37;26.10;;;11.77;;
35418;SDS011;21525;41.240;16.500;2023-07-20T00:18:06;29.95;;;12.82;;
35418;SDS011;21525;41.240;16.500;2023-07-20T00:20:31;24.10;;;12.85;;
35418;SDS011;21525;41.240;16.500;2023-07-20T00:22:57;25.15;;;11.38;;
35418;SDS011;21525;41.240;16.500;2023-07-20T00:25:23;28.55;;;12.30;;
35418;SDS011;21525;41.240;16.500;2023-07-20T00:27:49;22.38;;;12.32;;
35418;SDS011;21525;41.240;16.500;2023-07-20T00:30:15;24.25;;;11.77;;
35418;SDS011;21525;41.240;16.500;2023-07-20T00:32:42;23.10;;;12.93;;
35418;SDS011;21525;41.240;16.500;2023-07-20T00:35:09;27.73;;;12.85;;
35418;SDS011;21525;41.240;16.500;2023-07-20T00:37:35;27.40;;;13.60;;
35418;SDS011;21525;41.240;16.500;2023-07-20T00:40:01;24.92;;;13.73;;
35418;SDS011;21525;41.240;16.500;2023-07-20T00:42:28;29.33;;;14.37;;
35418;SDS011;21525;41.240;16.500;2023-07-20T00:44:54;27.05;;;13.63;;
35418;SDS011;21525;41.240;16.500;2023-07-20T00:47:20;24.48;;;13.38;;
35418;SDS011;21525;41.240;16.500;2023-07-20T00:49:46;27.83;;;13.18;;
35418;SDS011;21525;41.240;16.500;2023-07-20T00:52:12;26.55;;;12.88;;
35418;SDS011;21525;41.240;16.500;2023-07-20T00:54:42;24.70;;;12.32;;
35418;SDS011;21525;41.240;16.500;2023-07-20T00:57:09;28.00;;;12.98;;
35418;SDS011;21525;41.240;16.500;2023-07-20T00:59:35;28.77;;;12.73;;
35418;SDS011;21525;41.240;16.500;2023-07-20T01:02:01;32.88;;;13.23;;
35418;SDS011;21525;41.240;16.500;2023-07-20T01:04:29;24.60;;;13.20;;
35418;SDS011;21525;41.240;16.500;2023-07-20T01:07:00;25.55;;;12.07;;
35418;SDS011;21525;41.240;16.500;2023-07-20T01:09:42;25.30;;;11.02;;
35418;SDS011;21525;41.240;16.500;2023-07-20T01:12:18;32.75;;;11.70;;
35418;SDS011;21525;41.240;16.500;2023-07-20T01:15:06;29.30;;;11.23;;
35418;SDS011;21525;41.240;16.500;2023-07-20T01:17:33;25.05;;;11.15;;
35418;SDS011;21525;41.240;16.500;2023-07-20T01:19:59;23.80;;;9.98;;
35418;SDS011;21525;41.240;16.500;2023-07-20T01:33:35;24.38;;;8.10;;
35418;SDS011;21525;41.240;16.500;2023-07-20T01:36:01;30.08;;;9.50;;
35418;SDS011;21525;41.240;16.500;2023-07-20T01:38:28;20.58;;;8.65;;
35418;SDS011;21525;41.240;16.500;2023-07-20T01:40:54;23.55;;;8.68;;
35418;SDS011;21525;41.240;16.500;2023-07-20T01:43:21;24.42;;;8.63;;
35418;SDS011;21525;41.240;16.500;2023-07-20T01:45:47;18.48;;;7.60;;
35418;SDS011;21525;41.240;16.500;2023-07-20T01:48:13;28.02;;;8.82;;
35418;SDS011;21525;41.240;16.500;2023-07-20T01:50:38;27.67;;;9.10;;
35418;SDS011;21525;41.240;16.500;2023-07-20T01:53:04;28.40;;;9.40;;
35418;SDS011;21525;41.240;16.500;2023-07-20T01:55:30;24.65;;;9.63;;
35418;SDS011;21525;41.240;16.500;2023-07-20T01:57:55;28.77;;;8.70;;
35418;SDS011;21525;41.240;16.500;2023-07-20T02:00:22;26.30;;;9.57;;
35418;SDS011;21525;41.240;16.500;2023-07-20T02:02:50;23.25;;;8.50;;
35418;SDS011;21525;41.240;16.500;2023-07-20T02:05:16;21.60;;;8.15;;
35418;SDS011;21525;41.240;16.500;2023-07-20T02:07:42;25.25;;;9.90;;
35418;SDS011;21525;41.240;16.500;2023-07-20T02:10:08;24.48;;;12.25;;
35418;SDS011;21525;41.240;16.500;2023-07-20T02:12:35;24.48;;;8.90;;
35418;SDS011;21525;41.240;16.500;2023-07-20T02:15:01;20.40;;;8.80;;
35418;SDS011;21525;41.240;16.500;2023-07-20T02:17:28;25.55;;;8.60;;
35418;SDS011;21525;41.240;16.500;2023-07-20T02:19:54;25.65;;;8.80;;
35418;SDS011;21525;41.240;16.500;2023-07-20T02:22:21;22.67;;;8.32;;
35418;SDS011;21525;41.240;16.500;2023-07-20T02:24:47;28.30;;;8.30;;
35418;SDS011;21525;41.240;16.500;2023-07-20T02:27:13;26.77;;;7.97;;
35418;SDS011;21525;41.240;16.500;2023-07-20T02:29:40;27.83;;;8.15;;
35418;SDS011;21525;41.240;16.500;2023-07-20T02:32:06;21.02;;;7.35;;
35418;SDS011;21525;41.240;16.500;2023-07-20T02:34:32;25.45;;;7.40;;
35418;SDS011;21525;41.240;16.500;2023-07-20T02:36:58;25.42;;;7.28;;
35418;SDS011;21525;41.240;16.500;2023-07-20T02:39:29;25.83;;;7.77;;
35418;SDS011;21525;41.240;16.500;2023-07-20T02:41:55;21.08;;;7.05;;
35418;SDS011;21525;41.240;16.500;2023-07-20T02:44:21;24.52;;;7.45;;
35418;SDS011;21525;41.240;16.500;2023-07-20T02:46:47;16.73;;;6.55;;
35418;SDS011;21525;41.240;16.500;2023-07-20T02:49:15;21.08;;;7.22;;
35418;SDS011;21525;41.240;16.500;2023-07-20T02:51:41;22.10;;;7.95;;
35418;SDS011;21525;41.240;16.500;2023-07-20T02:54:07;22.67;;;7.97;;
35418;SDS011;21525;41.240;16.500;2023-07-20T02:56:33;26.35;;;7.38;;
35418;SDS011;21525;41.240;16.500;2023-07-20T02:59:01;20.15;;;7.47;;
35418;SDS011;21525;41.240;16.500;2023-07-20T03:01:27;27.42;;;7.32;;
35418;SDS011;21525;41.240;16.500;2023-07-20T03:03:55;21.98;;;7.32;;
35418;SDS011;21525;41.240;16.500;2023-07-20T03:06:21;23.73;;;7.53;;
35418;SDS011;21525;41.240;16.500;2023-07-20T03:08:47;17.85;;;6.93;;
35418;SDS011;21525;41.240;16.500;2023-07-20T03:11:14;24.38;;;7.65;;
35418;SDS011;21525;41.240;16.500;2023-07-20T03:13:41;24.17;;;7.72;;
35418;SDS011;21525;41.240;16.500;2023-07-20T03:16:08;24.77;;;7.53;;
35418;SDS011;21525;41.240;16.500;2023-07-20T03:18:37;25.02;;;6.93;;
35418;SDS011;21525;41.240;16.500;2023-07-20T03:21:08;25.98;;;8.05;;
35418;SDS011;21525;41.240;16.500;2023-07-20T03:23:36;23.67;;;7.28;;
35418;SDS011;21525;41.240;16.500;2023-07-20T03:26:02;23.67;;;6.75;;
35418;SDS011;21525;41.240;16.500;2023-07-20T03:28:28;29.10;;;7.78;;
35418;SDS011;21525;41.240;16.500;2023-07-20T03:30:57;24.77;;;7.90;;
35418;SDS011;21525;41.240;16.500;2023-07-20T03:33:26;30.45;;;7.45;;
35418;SDS011;21525;41.240;16.500;2023-07-20T03:35:53;26.90;;;7.47;;
35418;SDS011;21525;41.240;16.500;2023-07-20T03:38:19;25.27;;;8.05;;
35418;SDS011;21525;41.240;16.500;2023-07-20T03:40:52;25.58;;;7.47;;
35418;SDS011;21525;41.240;16.500;2023-07-20T03:43:20;31.17;;;7.93;;
35418;SDS011;21525;41.240;16.500;2023-07-20T03:45:46;21.40;;;7.07;;
35418;SDS011;21525;41.240;16.500;2023-07-20T03:48:14;29.23;;;8.27;;
35418;SDS011;21525;41.240;16.500;2023-07-20T03:50:41;26.48;;;7.38;;
35418;SDS011;21525;41.240;16.500;2023-07-20T03:53:06;28.67;;;7.53;;
35418;SDS011;21525;41.240;16.500;2023-07-20T03:55:32;28.40;;;8.60;;
35418;SDS011;21525;41.240;16.500;2023-07-20T03:57:58;33.40;;;7.95;;
35418;SDS011;21525;41.240;16.500;2023-07-20T04:00:23;22.27;;;7.32;;
35418;SDS011;21525;41.240;16.500;2023-07-20T04:02:49;20.98;;;6.68;;
35418;SDS011;21525;41.240;16.500;2023-07-20T04:05:15;29.65;;;7.82;;
35418;SDS011;21525;41.240;16.500;2023-07-20T04:07:41;22.70;;;7.10;;
35418;SDS011;21525;41.240;16.500;2023-07-20T04:10:07;26.52;;;7.40;;
35418;SDS011;21525;41.240;16.500;2023-07-20T04:12:34;32.28;;;7.80;;
35418;SDS011;21525;41.240;16.500;2023-07-20T04:15:01;25.50;;;7.90;;
35418;SDS011;21525;41.240;16.500;2023-07-20T04:17:28;23.05;;;6.85;;
35418;SDS011;21525;41.240;16.500;2023-07-20T04:19:55;24.77;;;8.10;;
35418;SDS011;21525;41.240;16.500;2023-07-20T04:22:20;25.27;;;7.47;;
35418;SDS011;21525;41.240;16.500;2023-07-20T04:24:47;30.83;;;7.72;;
35418;SDS011;21525;41.240;16.500;2023-07-20T04:27:13;29.80;;;7.68;;
35418;SDS011;21525;41.240;16.500;2023-07-20T04:29:38;24.83;;;7.28;;
35418;SDS011;21525;41.240;16.500;2023-07-20T04:32:04;26.30;;;7.97;;
35418;SDS011;21525;41.240;16.500;2023-07-20T04:34:31;29.67;;;7.90;;
35418;SDS011;21525;41.240;16.500;2023-07-20T04:36:57;22.75;;;7.72;;
35418;SDS011;21525;41.240;16.500;2023-07-20T04:39:24;30.65;;;6.80;;
35418;SDS011;21525;41.240;16.500;2023-07-20T04:41:50;36.00;;;8.65;;
35418;SDS011;21525;41.240;16.500;2023-07-20T04:44:17;28.77;;;9.02;;
35418;SDS011;21525;41.240;16.500;2023-07-20T04:46:43;30.42;;;8.52;;
35418;SDS011;21525;41.240;16.500;2023-07-20T04:49:08;25.15;;;8.82;;
35418;SDS011;21525;41.240;16.500;2023-07-20T04:51:38;24.98;;;8.27;;
35418;SDS011;21525;41.240;16.500;2023-07-20T04:54:04;27.17;;;8.43;;
35418;SDS011;21525;41.240;16.500;2023-07-20T04:56:34;28.85;;;8.55;;
35418;SDS011;21525;41.240;16.500;2023-07-20T04:59:01;28.73;;;7.90;;
35418;SDS011;21525;41.240;16.500;2023-07-20T05:01:27;26.88;;;8.48;;
35418;SDS011;21525;41.240;16.500;2023-07-20T05:03:53;28.48;;;7.75;;
35418;SDS011;21525;41.240;16.500;2023-07-20T05:06:19;27.40;;;8.20;;
35418;SDS011;21525;41.240;16.500;2023-07-20T05:08:45;21.42;;;6.85;;
35418;SDS011;21525;41.240;16.500;2023-07-20T05:11:11;62.42;;;12.68;;
35418;SDS011;21525;41.240;16.500;2023-07-20T05:13:37;29.83;;;8.63;;
35418;SDS011;21525;41.240;16.500;2023-07-20T05:16:03;31.00;;;8.55;;
35418;SDS011;21525;41.240;16.500;2023-07-20T05:18:32;32.20;;;7.82;;
35418;SDS011;21525;41.240;16.500;2023-07-20T05:20:59;29.77;;;8.35;;
35418;SDS011;21525;41.240;16.500;2023-07-20T05:23:24;24.23;;;8.35;;
35418;SDS011;21525;41.240;16.500;2023-07-20T05:25:57;30.60;;;8.30;;
35418;SDS011;21525;41.240;16.500;2023-07-20T05:28:24;33.70;;;9.35;;
35418;SDS011;21525;41.240;16.500;2023-07-20T05:30:51;26.77;;;7.90;;
35418;SDS011;21525;41.240;16.500;2023-07-20T05:33:18;39.65;;;9.90;;
35418;SDS011;21525;41.240;16.500;2023-07-20T05:35:44;32.47;;;8.38;;
35418;SDS011;21525;41.240;16.500;2023-07-20T05:38:10;35.33;;;9.70;;
35418;SDS011;21525;41.240;16.500;2023-07-20T05:40:40;40.05;;;9.55;;
35418;SDS011;21525;41.240;16.500;2023-07-20T05:43:08;35.95;;;9.13;;
35418;SDS011;21525;41.240;16.500;2023-07-20T05:45:33;36.92;;;9.48;;
35418;SDS011;21525;41.240;16.500;2023-07-20T05:47:59;37.75;;;10.15;;
35418;SDS011;21525;41.240;16.500;2023-07-20T05:50:25;39.72;;;10.88;;
35418;SDS011;21525;41.240;16.500;2023-07-20T05:52:54;37.58;;;11.25;;
35418;SDS011;21525;41.240;16.500;2023-07-20T05:55:20;40.20;;;11.60;;
35418;SDS011;21525;41.240;16.500;2023-07-20T05:57:46;34.15;;;9.00;;
35418;SDS011;21525;41.240;16.500;2023-07-20T06:00:13;33.92;;;10.82;;
35418;SDS011;21525;41.240;16.500;2023-07-20T06:02:39;32.65;;;10.32;;
35418;SDS011;21525;41.240;16.500;2023-07-20T06:05:08;37.22;;;9.73;;
35418;SDS011;21525;41.240;16.500;2023-07-20T06:07:37;31.75;;;9.73;;
35418;SDS011;21525;41.240;16.500;2023-07-20T06:10:03;33.95;;;9.68;;
35418;SDS011;21525;41.240;16.500;2023-07-20T06:12:31;27.45;;;9.05;;
35418;SDS011;21525;41.240;16.500;2023-07-20T06:15:01;34.65;;;9.98;;
35418;SDS011;21525;41.240;16.500;2023-07-20T06:17:28;47.35;;;9.27;;
35418;SDS011;21525;41.240;16.500;2023-07-20T06:19:54;37.88;;;9.65;;
35418;SDS011;21525;41.240;16.500;2023-07-20T06:22:20;26.58;;;8.77;;
35418;SDS011;21525;41.240;16.500;2023-07-20T06:24:45;36.63;;;8.65;;
35418;SDS011;21525;41.240;16.500;2023-07-20T06:27:11;30.70;;;8.75;;
35418;SDS011;21525;41.240;16.500;2023-07-20T06:29:38;32.58;;;9.23;;
35418;SDS011;21525;41.240;16.500;2023-07-20T06:32:04;36.22;;;10.20;;
35418;SDS011;21525;41.240;16.500;2023-07-20T06:34:30;40.33;;;11.02;;
35418;SDS011;21525;41.240;16.500;2023-07-20T06:36:56;44.92;;;10.70;;
35418;SDS011;21525;41.240;16.500;2023-07-20T06:39:22;31.15;;;9.75;;
35418;SDS011;21525;41.240;16.500;2023-07-20T06:41:48;32.03;;;10.23;;
35418;SDS011;21525;41.240;16.500;2023-07-20T06:44:14;33.75;;;8.82;;
35418;SDS011;21525;41.240;16.500;2023-07-20T06:46:39;42.35;;;9.23;;
35418;SDS011;21525;41.240;16.500;2023-07-20T06:49:06;34.20;;;8.95;;
35418;SDS011;21525;41.240;16.500;2023-07-20T06:51:33;24.73;;;7.82;;
35418;SDS011;21525;41.240;16.500;2023-07-20T06:53:59;36.67;;;8.82;;
35418;SDS011;21525;41.240;16.500;2023-07-20T06:56:25;32.45;;;8.25;;
35418;SDS011;21525;41.240;16.500;2023-07-20T06:58:50;32.85;;;9.38;;
35418;SDS011;21525;41.240;16.500;2023-07-20T07:01:16;34.97;;;9.07;;
35418;SDS011;21525;41.240;16.500;2023-07-20T07:03:42;34.03;;;9.18;;
35418;SDS011;21525;41.240;16.500;2023-07-20T07:06:09;32.95;;;8.40;;
35418;SDS011;21525;41.240;16.500;2023-07-20T07:08:35;31.85;;;9.30;;
35418;SDS011;21525;41.240;16.500;2023-07-20T07:11:01;28.75;;;8.35;;
35418;SDS011;21525;41.240;16.500;2023-07-20T07:13:27;33.58;;;9.68;;
35418;SDS011;21525;41.240;16.500;2023-07-20T07:15:53;33.60;;;9.30;;
35418;SDS011;21525;41.240;16.500;2023-07-20T07:18:19;35.33;;;8.40;;
35418;SDS011;21525;41.240;16.500;2023-07-20T07:20:52;28.73;;;8.43;;
35418;SDS011;21525;41.240;16.500;2023-07-20T07:23:18;32.53;;;10.63;;
35418;SDS011;21525;41.240;16.500;2023-07-20T07:25:45;29.08;;;10.38;;
35418;SDS011;21525;41.240;16.500;2023-07-20T07:28:10;31.10;;;11.10;;
35418;SDS011;21525;41.240;16.500;2023-07-20T07:30:36;36.25;;;11.95;;
35418;SDS011;21525;41.240;16.500;2023-07-20T07:33:02;40.97;;;12.65;;
35418;SDS011;21525;41.240;16.500;2023-07-20T07:35:28;32.75;;;11.00;;
35418;SDS011;21525;41.240;16.500;2023-07-20T07:37:54;27.77;;;10.38;;
35418;SDS011;21525;41.240;16.500;2023-07-20T07:40:20;28.80;;;9.82;;
35418;SDS011;21525;41.240;16.500;2023-07-20T07:42:45;30.00;;;9.90;;
35418;SDS011;21525;41.240;16.500;2023-07-20T07:48:03;29.08;;;9.88;;
35418;SDS011;21525;41.240;16.500;2023-07-20T07:50:30;28.02;;;10.05;;
35418;SDS011;21525;41.240;16.500;2023-07-20T07:52:56;29.17;;;9.00;;
35418;SDS011;21525;41.240;16.500;2023-07-20T07:55:22;29.30;;;9.73;;
35418;SDS011;21525;41.240;16.500;2023-07-20T07:57:49;36.00;;;9.88;;
35418;SDS011;21525;41.240;16.500;2023-07-20T08:00:15;27.17;;;9.85;;
35418;SDS011;21525;41.240;16.500;2023-07-20T08:02:44;38.25;;;10.02;;
35418;SDS011;21525;41.240;16.500;2023-07-20T08:05:11;36.50;;;10.63;;
35418;SDS011;21525;41.240;16.500;2023-07-20T08:07:38;33.13;;;9.82;;
35418;SDS011;21525;41.240;16.500;2023-07-20T08:10:04;35.63;;;9.57;;
35418;SDS011;21525;41.240;16.500;2023-07-20T08:12:30;25.90;;;9.32;;
35418;SDS011;21525;41.240;16.500;2023-07-20T08:14:56;28.77;;;9.38;;
35418;SDS011;21525;41.240;16.500;2023-07-20T08:17:22;27.83;;;8.88;;
35418;SDS011;21525;41.240;16.500;2023-07-20T08:19:48;29.17;;;9.48;;
35418;SDS011;21525;41.240;16.500;2023-07-20T08:22:13;29.10;;;8.60;;
35418;SDS011;21525;41.240;16.500;2023-07-20T08:24:39;28.45;;;8.43;;
35418;SDS011;21525;41.240;16.500;2023-07-20T08:27:06;27.20;;;8.75;;
35418;SDS011;21525;41.240;16.500;2023-07-20T08:29:32;27.05;;;8.40;;
35418;SDS011;21525;41.240;16.500;2023-07-20T08:31:57;27.10;;;8.80;;
35418;SDS011;21525;41.240;16.500;2023-07-20T08:34:23;26.08;;;9.13;;
35418;SDS011;21525;41.240;16.500;2023-07-20T08:36:50;32.00;;;9.85;;
35418;SDS011;21525;41.240;16.500;2023-07-20T08:39:16;28.33;;;10.05;;
35418;SDS011;21525;41.240;16.500;2023-07-20T08:41:46;27.50;;;9.38;;
35418;SDS011;21525;41.240;16.500;2023-07-20T08:44:12;29.63;;;9.15;;
35418;SDS011;21525;41.240;16.500;2023-07-20T08:46:38;35.22;;;9.27;;
35418;SDS011;21525;41.240;16.500;2023-07-20T08:49:06;32.10;;;10.77;;
35418;SDS011;21525;41.240;16.500;2023-07-20T08:51:33;34.67;;;10.40;;
35418;SDS011;21525;41.240;16.500;2023-07-20T08:53:59;26.13;;;9.85;;
35418;SDS011;21525;41.240;16.500;2023-07-20T08:56:25;30.35;;;9.85;;
35418;SDS011;21525;41.240;16.500;2023-07-20T08:58:52;24.38;;;9.95;;
35418;SDS011;21525;41.240;16.500;2023-07-20T09:01:19;36.50;;;11.30;;
35418;SDS011;21525;41.240;16.500;2023-07-20T09:03:45;27.08;;;8.82;;
35418;SDS011;21525;41.240;16.500;2023-07-20T09:06:12;28.63;;;9.55;;
35418;SDS011;21525;41.240;16.500;2023-07-20T09:08:39;27.95;;;9.38;;
35418;SDS011;21525;41.240;16.500;2023-07-20T09:11:05;37.17;;;10.60;;
35418;SDS011;21525;41.240;16.500;2023-07-20T09:13:32;26.73;;;9.07;;
35418;SDS011;21525;41.240;16.500;2023-07-20T09:15:59;37.53;;;10.45;;
35418;SDS011;21525;41.240;16.500;2023-07-20T09:18:25;29.85;;;9.05;;
35418;SDS011;21525;41.240;16.500;2023-07-20T09:21:03;31.75;;;9.95;;
35418;SDS011;21525;41.240;16.500;2023-07-20T09:23:34;24.48;;;9.15;;
35418;SDS011;21525;41.240;16.500;2023-07-20T09:26:11;28.60;;;8.80;;
35418;SDS011;21525;41.240;16.500;2023-07-20T09:28:41;25.70;;;9.50;;
35418;SDS011;21525;41.240;16.500;2023-07-20T09:31:16;28.27;;;10.40;;
35418;SDS011;21525;41.240;16.500;2023-07-20T09:33:42;26.17;;;9.50;;
35418;SDS011;21525;41.240;16.500;2023-07-20T09:36:11;23.42;;;8.85;;
35418;SDS011;21525;41.240;16.500;2023-07-20T09:38:38;28.63;;;9.18;;
35418;SDS011;21525;41.240;16.500;2023-07-20T09:41:12;34.83;;;10.30;;
35418;SDS011;21525;41.240;16.500;2023-07-20T09:43:39;28.35;;;9.52;;
35418;SDS011;21525;41.240;16.500;2023-07-20T09:46:05;26.08;;;10.30;;
35418;SDS011;21525;41.240;16.500;2023-07-20T09:48:31;31.75;;;9.57;;
35418;SDS011;21525;41.240;16.500;2023-07-20T09:50:57;30.25;;;10.85;;
35418;SDS011;21525;41.240;16.500;2023-07-20T09:53:24;26.38;;;8.93;;
35418;SDS011;21525;41.240;16.500;2023-07-20T09:55:50;24.73;;;8.80;;
35418;SDS011;21525;41.240;16.500;2023-07-20T09:58:18;22.65;;;10.20;;
35418;SDS011;21525;41.240;16.500;2023-07-20T10:00:44;21.55;;;9.10;;
35418;SDS011;21525;41.240;16.500;2023-07-20T10:03:19;20.50;;;9.55;;
35418;SDS011;21525;41.240;16.500;2023-07-20T10:05:47;23.60;;;7.93;;
35418;SDS011;21525;41.240;16.500;2023-07-20T10:08:25;26.15;;;8.77;;
35418;SDS011;21525;41.240;16.500;2023-07-20T10:10:52;23.67;;;9.48;;
35418;SDS011;21525;41.240;16.500;2023-07-20T10:13:19;26.33;;;9.30;;
35418;SDS011;21525;41.240;16.500;2023-07-20T10:15:51;22.38;;;9.25;;
35418;SDS011;21525;41.240;16.500;2023-07-20T10:20:59;29.02;;;10.20;;
35418;SDS011;21525;41.240;16.500;2023-07-20T10:23:28;22.35;;;9.80;;
35418;SDS011;21525;41.240;16.500;2023-07-20T10:25:56;24.23;;;9.30;;
35418;SDS011;21525;41.240;16.500;2023-07-20T10:28:22;24.10;;;9.20;;
35418;SDS011;21525;41.240;16.500;2023-07-20T10:30:50;25.98;;;8.35;;
35418;SDS011;21525;41.240;16.500;2023-07-20T10:33:16;22.63;;;9.18;;
35418;SDS011;21525;41.240;16.500;2023-07-20T10:38:20;19.55;;;8.98;;
35418;SDS011;21525;41.240;16.500;2023-07-20T10:41:05;25.83;;;8.88;;
35418;SDS011;21525;41.240;16.500;2023-07-20T10:43:44;22.77;;;9.18;;
35418;SDS011;21525;41.240;16.500;2023-07-20T10:46:12;23.80;;;8.88;;
35418;SDS011;21525;41.240;16.500;2023-07-20T10:51:27;23.27;;;8.93;;
35418;SDS011;21525;41.240;16.500;2023-07-20T10:53:57;21.38;;;10.35;;
35418;SDS011;21525;41.240;16.500;2023-07-20T10:56:27;23.23;;;9.02;;
35418;SDS011;21525;41.240;16.500;2023-07-20T10:58:57;21.77;;;10.60;;
35418;SDS011;21525;41.240;16.500;2023-07-20T11:01:27;21.67;;;9.15;;
35418;SDS011;21525;41.240;16.500;2023-07-20T11:03:57;20.70;;;9.05;;
35418;SDS011;21525;41.240;16.500;2023-07-20T11:08:56;23.58;;;9.70;;
35418;SDS011;21525;41.240;16.500;2023-07-20T11:11:41;20.02;;;9.25;;
35418;SDS011;21525;41.240;16.500;2023-07-20T11:14:08;17.73;;;10.52;;
35418;SDS011;21525;41.240;16.500;2023-07-20T11:16:49;18.83;;;9.10;;
35418;SDS011;21525;41.240;16.500;2023-07-20T11:21:49;18.02;;;9.73;;
35418;SDS011;21525;41.240;16.500;2023-07-20T11:24:17;19.48;;;9.85;;
35418;SDS011;21525;41.240;16.500;2023-07-20T11:26:43;22.55;;;9.80;;
35418;SDS011;21525;41.240;16.500;2023-07-20T11:29:10;19.17;;;9.50;;
35418;SDS011;21525;41.240;16.500;2023-07-20T11:31:39;16.75;;;8.73;;
35418;SDS011;21525;41.240;16.500;2023-07-20T11:34:14;18.88;;;8.60;;
35418;SDS011;21525;41.240;16.500;2023-07-20T11:36:41;19.17;;;8.27;;
35418;SDS011;21525;41.240;16.500;2023-07-20T11:39:09;21.75;;;9.00;;
35418;SDS011;21525;41.240;16.500;2023-07-20T11:41:36;24.67;;;9.43;;
35418;SDS011;21525;41.240;16.500;2023-07-20T11:44:02;21.23;;;8.43;;
35418;SDS011;21525;41.240;16.500;2023-07-20T11:46:28;17.75;;;8.90;;
35418;SDS011;21525;41.240;16.500;2023-07-20T11:48:57;19.73;;;8.95;;
35418;SDS011;21525;41.240;16.500;2023-07-20T11:51:26;22.65;;;9.05;;
35418;SDS011;21525;41.240;16.500;2023-07-20T11:53:53;21.02;;;8.38;;
35418;SDS011;21525;41.240;16.500;2023-07-20T11:56:19;20.05;;;8.50;;
35418;SDS011;21525;41.240;16.500;2023-07-20T11:58:45;16.83;;;8.90;;
35418;SDS011;21525;41.240;16.500;2023-07-20T12:01:15;17.15;;;7.82;;
35418;SDS011;21525;41.240;16.500;2023-07-20T12:03:42;15.48;;;7.88;;
35418;SDS011;21525;41.240;16.500;2023-07-20T12:06:09;16.70;;;7.85;;
35418;SDS011;21525;41.240;16.500;2023-07-20T12:08:42;22.90;;;8.98;;
35418;SDS011;21525;41.240;16.500;2023-07-20T12:11:09;18.55;;;8.35;;
35418;SDS011;21525;41.240;16.500;2023-07-20T12:13:54;20.42;;;8.65;;
35418;SDS011;21525;41.240;16.500;2023-07-20T12:18:51;20.55;;;9.55;;
35418;SDS011;21525;41.240;16.500;2023-07-20T12:21:25;18.40;;;8.68;;
35418;SDS011;21525;41.240;16.500;2023-07-20T12:23:51;16.55;;;7.47;;
35418;SDS011;21525;41.240;16.500;2023-07-20T12:26:16;19.27;;;8.82;;
35418;SDS011;21525;41.240;16.500;2023-07-20T12:28:42;15.48;;;8.27;;
35418;SDS011;21525;41.240;16.500;2023-07-20T12:31:08;17.27;;;8.82;;
35418;SDS011;21525;41.240;16.500;2023-07-20T12:33:36;19.40;;;8.10;;
35418;SDS011;21525;41.240;16.500;2023-07-20T12:36:03;18.15;;;8.13;;
35418;SDS011;21525;41.240;16.500;2023-07-20T12:38:30;17.70;;;8.23;;
35418;SDS011;21525;41.240;16.500;2023-07-20T12:41:00;18.85;;;9.07;;
35418;SDS011;21525;41.240;16.500;2023-07-20T12:43:26;20.15;;;7.97;;
35418;SDS011;21525;41.240;16.500;2023-07-20T12:45:52;22.30;;;8.48;;
35418;SDS011;21525;41.240;16.500;2023-07-20T12:48:18;18.15;;;8.93;;
35418;SDS011;21525;41.240;16.500;2023-07-20T12:50:44;18.27;;;8.90;;
35418;SDS011;21525;41.240;16.500;2023-07-20T12:53:10;19.45;;;8.70;;
35418;SDS011;21525;41.240;16.500;2023-07-20T12:55:37;19.15;;;8.48;;
35418;SDS011;21525;41.240;16.500;2023-07-20T12:58:04;17.23;;;9.43;;
35418;SDS011;21525;41.240;16.500;2023-07-20T13:00:30;16.65;;;8.75;;
35418;SDS011;21525;41.240;16.500;2023-07-20T13:02:57;16.85;;;8.40;;
35418;SDS011;21525;41.240;16.500;2023-07-20T13:05:23;20.40;;;8.57;;
35418;SDS011;21525;41.240;16.500;2023-07-20T13:07:49;17.92;;;8.07;;
35418;SDS011;21525;41.240;16.500;2023-07-20T13:10:15;19.67;;;9.05;;
35418;SDS011;21525;41.240;16.500;2023-07-20T13:12:41;18.27;;;8.73;;
35418;SDS011;21525;41.240;16.500;2023-07-20T13:15:07;18.80;;;9.35;;
35418;SDS011;21525;41.240;16.500;2023-07-20T13:17:34;17.65;;;8.80;;
35418;SDS011;21525;41.240;16.500;2023-07-20T13:20:01;14.65;;;7.85;;
35418;SDS011;21525;41.240;16.500;2023-07-20T13:22:30;20.30;;;8.40;;
35418;SDS011;21525;41.240;16.500;2023-07-20T13:24:56;20.33;;;9.18;;
35418;SDS011;21525;41.240;16.500;2023-07-20T13:27:22;14.15;;;7.93;;
35418;SDS011;21525;41.240;16.500;2023-07-20T13:29:47;15.23;;;8.20;;
35418;SDS011;21525;41.240;16.500;2023-07-20T13:32:13;17.85;;;8.70;;
35418;SDS011;21525;41.240;16.500;2023-07-20T13:34:40;18.25;;;8.90;;
35418;SDS011;21525;41.240;16.500;2023-07-20T13:37:06;17.95;;;8.27;;
35418;SDS011;21525;41.240;16.500;2023-07-20T13:39:33;20.33;;;8.50;;
35418;SDS011;21525;41.240;16.500;2023-07-20T13:41:59;15.02;;;8.13;;
35418;SDS011;21525;41.240;16.500;2023-07-20T13:44:27;18.58;;;8.65;;
35418;SDS011;21525;41.240;16.500;2023-07-20T13:46:54;18.50;;;9.30;;
35418;SDS011;21525;41.240;16.500;2023-07-20T13:49:20;19.65;;;9.15;;
35418;SDS011;21525;41.240;16.500;2023-07-20T13:51:46;16.48;;;9.10;;
35418;SDS011;21525;41.240;16.500;2023-07-20T13:54:12;24.25;;;9.20;;
35418;SDS011;21525;41.240;16.500;2023-07-20T13:56:38;20.50;;;8.95;;
35418;SDS011;21525;41.240;16.500;2023-07-20T13:59:04;19.13;;;9.23;;
35418;SDS011;21525;41.240;16.500;2023-07-20T14:01:29;22.30;;;9.15;;
35418;SDS011;21525;41.240;16.500;2023-07-20T14:03:58;23.83;;;9.82;;
35418;SDS011;21525;41.240;16.500;2023-07-20T14:06:24;18.27;;;9.50;;
35418;SDS011;21525;41.240;16.500;2023-07-20T14:08:50;17.73;;;9.40;;
35418;SDS011;21525;41.240;16.500;2023-07-20T14:11:16;19.05;;;9.15;;
35418;SDS011;21525;41.240;16.500;2023-07-20T14:13:42;20.27;;;10.00;;
35418;SDS011;21525;41.240;16.500;2023-07-20T14:16:08;20.52;;;9.75;;
35418;SDS011;21525;41.240;16.500;2023-07-20T14:18:34;22.42;;;9.60;;
35418;SDS011;21525;41.240;16.500;2023-07-20T14:21:00;18.33;;;10.10;;
35418;SDS011;21525;41.240;16.500;2023-07-20T14:23:28;19.77;;;10.02;;
35418;SDS011;21525;41.240;16.500;2023-07-20T14:25:54;21.10;;;10.88;;
35418;SDS011;21525;41.240;16.500;2023-07-20T14:28:20;21.45;;;11.25;;
35418;SDS011;21525;41.240;16.500;2023-07-20T14:30:46;17.63;;;10.35;;
35418;SDS011;21525;41.240;16.500;2023-07-20T14:33:12;20.33;;;9.63;;
35418;SDS011;21525;41.240;16.500;2023-07-20T14:35:38;15.45;;;9.55;;
35418;SDS011;21525;41.240;16.500;2023-07-20T14:38:03;18.63;;;9.65;;
35418;SDS011;21525;41.240;16.500;2023-07-20T14:40:30;19.23;;;10.15;;
35418;SDS011;21525;41.240;16.500;2023-07-20T14:42:56;21.98;;;10.52;;
35418;SDS011;21525;41.240;16.500;2023-07-20T14:45:22;21.83;;;10.38;;
35418;SDS011;21525;41.240;16.500;2023-07-20T14:47:48;16.52;;;10.70;;